Time;durP1;ratioP1;P1;durP2;ratioP2;P2;SDS_P1;SDS_P2;PMS_P1;PMS_P2;Temp;Humidity;BMP_temperature;BMP_pressure;BME280_temperature;BME280_humidity;BME280_pressure;Samples;Min_cycle;Max_cycle;Signal;HPM_P1;HPM_P2
2022/07/22 00:02:14;;;;;;;5.63;1.03;;;16.50;99.90;;;;;;6071713;23;20208;-88
2022/07/22 00:04:40;;;;;;;2.70;1.20;;;16.50;99.90;;;;;;6047831;23;20197;-89
2022/07/22 00:07:05;;;;;;;2.50;0.93;;;16.40;99.90;;;;;;6047750;23;20161;-88
2022/07/22 00:09:32;;;;;;;2.30;1.30;;;16.50;99.90;;;;;;6025137;23;20184;-88
2022/07/22 00:11:58;;;;;;;4.33;0.90;;;16.50;99.90;;;;;;6071612;23;20226;-88
2022/07/22 00:14:23;;;;;;;1.33;0.70;;;16.50;99.90;;;;;;6024316;23;20228;-89
2022/07/22 00:16:49;;;;;;;0.60;0.60;;;16.50;99.90;;;;;;6025185;23;20203;-88
2022/07/22 00:19:15;;;;;;;1.77;0.80;;;16.50;99.90;;;;;;6026297;23;20157;-89
2022/07/22 00:21:41;;;;;;;1.03;0.70;;;16.40;99.90;;;;;;6050216;23;20212;-88
2022/07/22 00:24:07;;;;;;;6.27;1.13;;;16.50;99.90;;;;;;6025932;23;20271;-89
2022/07/22 00:26:33;;;;;;;2.37;1.13;;;16.50;99.90;;;;;;6073652;23;20623;-88
2022/07/22 00:28:58;;;;;;;4.63;1.47;;;16.50;99.90;;;;;;6073685;23;20626;-88
2022/07/22 00:31:24;;;;;;;2.07;1.23;;;16.50;99.90;;;;;;6026166;23;20204;-88
2022/07/22 00:33:50;;;;;;;3.47;0.83;;;16.40;99.90;;;;;;6026731;23;20169;-89
2022/07/22 00:36:16;;;;;;;0.60;0.60;;;16.40;99.90;;;;;;6049504;23;20219;-88
2022/07/22 00:38:41;;;;;;;0.83;0.83;;;16.40;99.90;;;;;;6069130;23;20276;-88
2022/07/22 00:41:07;;;;;;;1.60;0.93;;;16.50;99.90;;;;;;6102351;23;20200;-89
2022/07/22 00:43:53;;;;;;;1.67;1.17;;;16.50;99.90;;;;;;6078628;23;20270;-88
2022/07/22 00:46:19;;;;;;;0.60;0.47;;;16.40;99.90;;;;;;6126438;23;20163;-88
2022/07/22 00:48:45;;;;;;;3.27;0.97;;;16.40;99.90;;;;;;6126863;23;20164;-88
2022/07/22 00:51:11;;;;;;;2.40;0.97;;;16.40;99.90;;;;;;6126627;23;20258;-88
2022/07/22 00:53:37;;;;;;;2.83;0.97;;;16.40;99.90;;;;;;6078612;23;20192;-88
2022/07/22 00:56:04;;;;;;;2.97;0.97;;;16.30;99.90;;;;;;6102030;23;20196;-88
2022/07/22 00:58:30;;;;;;;3.40;1.27;;;16.40;99.90;;;;;;6126815;23;20198;-88
2022/07/22 01:00:56;;;;;;;1.33;1.03;;;16.40;99.90;;;;;;6079043;23;20254;-88
2022/07/22 01:03:21;;;;;;;1.93;1.13;;;16.30;99.90;;;;;;6102123;23;20204;-89
2022/07/22 01:05:47;;;;;;;6.67;1.00;;;16.30;99.90;;;;;;6078139;23;20657;-88
2022/07/22 01:08:13;;;;;;;3.50;1.03;;;16.30;99.90;;;;;;6078528;23;20200;-89
2022/07/22 01:10:39;;;;;;;5.30;1.27;;;16.30;99.90;;;;;;6101960;23;20212;-88
2022/07/22 01:13:06;;;;;;;0.80;0.80;;;16.30;99.90;;;;;;6078520;23;20164;-89
2022/07/22 01:15:33;;;;;;;0.70;0.70;;;16.30;99.90;;;;;;6079057;23;20246;-88
2022/07/22 01:17:59;;;;;;;4.67;1.20;;;16.30;99.90;;;;;;6125864;23;20247;-88
2022/07/22 01:20:25;;;;;;;0.97;0.53;;;16.30;99.90;;;;;;6101977;23;20200;-90
2022/07/22 01:22:52;;;;;;;1.60;0.87;;;16.30;99.90;;;;;;6078381;23;20633;-89
2022/07/22 01:25:17;;;;;;;1.00;0.77;;;16.30;99.90;;;;;;6102348;23;20161;-89
2022/07/22 01:27:43;;;;;;;4.50;1.30;;;16.30;99.90;;;;;;6078970;23;20586;-89
2022/07/22 01:30:10;;;;;;;3.47;0.83;;;16.30;99.90;;;;;;6077966;23;20280;-90
2022/07/22 01:32:38;;;;;;;2.33;1.07;;;16.30;99.90;;;;;;6102020;23;20290;-91
2022/07/22 01:35:05;;;;;;;2.57;0.97;;;16.30;99.90;;;;;;6078333;23;20192;-90
2022/07/22 01:37:35;;;;;;;0.87;0.87;;;16.20;99.90;;;;;;6101925;23;20196;-88
2022/07/22 01:40:01;;;;;;;0.63;0.63;;;16.20;99.90;;;;;;6102058;23;20211;-90
2022/07/22 01:42:26;;;;;;;2.77;1.10;;;16.20;99.90;;;;;;6101490;23;20283;-89
2022/07/22 01:44:52;;;;;;;10.40;1.17;;;16.30;99.90;;;;;;6101609;23;20220;-90
2022/07/22 01:47:18;;;;;;;3.20;0.93;;;16.30;99.90;;;;;;6102007;23;20219;-90
2022/07/22 01:49:44;;;;;;;1.00;0.67;;;16.30;99.90;;;;;;6126256;23;20258;-90
2022/07/22 01:52:10;;;;;;;0.70;0.60;;;16.30;99.90;;;;;;6078252;23;20307;-89
2022/07/22 01:54:35;;;;;;;1.27;1.17;;;16.20;99.90;;;;;;6078541;23;20192;-91
2022/07/22 01:57:02;;;;;;;0.97;0.67;;;16.20;99.90;;;;;;6077457;23;20219;-88
2022/07/22 01:59:28;;;;;;;2.83;0.77;;;16.20;99.90;;;;;;6077859;23;20204;-89
2022/07/22 02:01:54;;;;;;;1.77;0.80;;;16.20;99.90;;;;;;6101339;23;20200;-88
2022/07/22 02:04:20;;;;;;;0.90;0.90;;;16.10;99.90;;;;;;6126038;23;20246;-89
2022/07/22 02:06:45;;;;;;;2.93;1.00;;;16.10;99.90;;;;;;6078284;23;20207;-89
2022/07/22 02:09:13;;;;;;;2.50;1.67;;;16.10;99.90;;;;;;6077716;23;20208;-89
2022/07/22 02:11:38;;;;;;;4.73;0.80;;;16.10;99.90;;;;;;6125972;23;20259;-87
2022/07/22 02:14:04;;;;;;;3.63;1.70;;;16.10;99.90;;;;;;6077166;23;20196;-88
2022/07/22 02:16:30;;;;;;;1.80;0.90;;;16.10;99.90;;;;;;6077888;23;20318;-89
2022/07/22 02:18:56;;;;;;;2.10;1.10;;;16.10;99.90;;;;;;6077833;23;20178;-88
2022/07/22 02:21:22;;;;;;;1.10;1.00;;;16.10;99.90;;;;;;6077482;23;20196;-88
2022/07/22 02:23:47;;;;;;;3.27;1.30;;;16.10;99.90;;;;;;6077434;23;20215;-90
2022/07/22 02:26:13;;;;;;;2.60;1.20;;;16.10;99.90;;;;;;6077228;23;20659;-88
2022/07/22 02:28:39;;;;;;;1.43;1.17;;;16.10;99.90;;;;;;6077592;23;20200;-89
2022/07/22 02:31:05;;;;;;;6.53;1.20;;;16.10;99.90;;;;;;6100933;23;20184;-87
2022/07/22 02:33:30;;;;;;;3.13;0.73;;;16.10;99.90;;;;;;6127548;23;20203;-89
2022/07/22 02:35:56;;;;;;;2.60;1.37;;;16.10;99.90;;;;;;6100982;23;20203;-88
2022/07/22 02:38:22;;;;;;;0.70;0.70;;;16.10;99.90;;;;;;6076765;23;20295;-88
2022/07/22 02:40:48;;;;;;;1.03;0.93;;;16.10;99.90;;;;;;6101400;23;20239;-89
2022/07/22 02:43:14;;;;;;;0.70;0.70;;;16.10;99.90;;;;;;6100972;23;20483;-87
2022/07/22 02:45:39;;;;;;;3.50;0.70;;;16.20;99.90;;;;;;6101986;23;20152;-87
2022/07/22 02:48:05;;;;;;;0.90;0.80;;;16.20;99.90;;;;;;6101061;23;20278;-88
2022/07/22 02:50:32;;;;;;;1.40;1.30;;;16.20;99.90;;;;;;6101003;23;20203;-88
2022/07/22 02:52:59;;;;;;;6.63;1.47;;;16.20;99.90;;;;;;6125424;23;20214;-88
2022/07/22 02:55:24;;;;;;;2.20;1.00;;;16.10;99.90;;;;;;6101416;23;20198;-88
2022/07/22 02:57:50;;;;;;;4.50;1.00;;;16.10;99.90;;;;;;6077574;23;20157;-87
2022/07/22 03:00:16;;;;;;;1.47;0.90;;;16.00;99.90;;;;;;6100842;23;20282;-89
2022/07/22 03:02:42;;;;;;;4.50;0.87;;;16.00;99.90;;;;;;6127051;23;20206;-89
2022/07/22 03:05:08;;;;;;;2.43;0.73;;;16.00;99.90;;;;;;6100815;23;20200;-89
2022/07/22 03:07:34;;;;;;;8.13;0.60;;;16.00;99.90;;;;;;6126804;23;20708;-89
2022/07/22 03:10:01;;;;;;;5.33;1.20;;;16.00;99.90;;;;;;6125697;23;20184;-88
2022/07/22 03:12:27;;;;;;;2.77;0.63;;;16.00;99.90;;;;;;6125130;23;20319;-88
2022/07/22 03:14:52;;;;;;;0.70;0.70;;;16.00;99.90;;;;;;6125233;23;20607;-88
2022/07/22 03:17:18;;;;;;;2.03;1.07;;;16.00;99.90;;;;;;6100928;23;20192;-89
2022/07/22 03:19:44;;;;;;;0.97;0.73;;;16.00;99.90;;;;;;6077127;23;20218;-87
2022/07/22 03:22:10;;;;;;;2.13;1.10;;;16.00;99.90;;;;;;6124840;23;20170;-88
2022/07/22 03:24:36;;;;;;;0.90;0.70;;;16.00;99.90;;;;;;6077380;23;20166;-88
2022/07/22 03:27:01;;;;;;;1.13;0.90;;;16.00;99.90;;;;;;6100219;23;20200;-87
2022/07/22 03:29:27;;;;;;;2.37;0.63;;;16.00;99.90;;;;;;6076973;23;20196;-89
2022/07/22 03:31:53;;;;;;;0.97;0.50;;;16.00;99.90;;;;;;6077298;23;20656;-88
2022/07/22 03:34:18;;;;;;;2.03;0.80;;;16.00;99.90;;;;;;6100273;23;20163;-88
2022/07/22 03:36:44;;;;;;;0.60;0.60;;;16.00;99.90;;;;;;6101577;23;20160;-88
2022/07/22 03:39:10;;;;;;;1.77;0.70;;;16.00;99.90;;;;;;6076677;23;20303;-88
2022/07/22 03:41:35;;;;;;;0.87;0.87;;;16.10;99.90;;;;;;6100573;23;20653;-86
2022/07/22 03:44:01;;;;;;;2.67;0.90;;;16.00;99.90;;;;;;6076344;23;20239;-88
2022/07/22 03:46:27;;;;;;;1.90;1.13;;;16.00;99.90;;;;;;6076697;23;20633;-87
2022/07/22 03:48:52;;;;;;;0.43;0.43;;;16.00;99.90;;;;;;6101122;23;20164;-87
2022/07/22 03:51:18;;;;;;;1.93;0.60;;;16.00;99.90;;;;;;6076067;23;20211;-88
2022/07/22 03:53:44;;;;;;;4.17;1.20;;;16.10;99.90;;;;;;6076315;23;20196;-87
2022/07/22 03:56:10;;;;;;;2.30;1.33;;;16.00;99.90;;;;;;6100716;23;20223;-87
2022/07/22 03:58:35;;;;;;;1.43;0.60;;;16.00;99.90;;;;;;6100400;23;20652;-87
2022/07/22 04:01:01;;;;;;;3.33;1.10;;;16.10;99.90;;;;;;6100798;23;20471;-88
2022/07/22 04:03:27;;;;;;;1.53;0.87;;;16.10;99.90;;;;;;6076825;23;20232;-88
2022/07/22 04:05:52;;;;;;;1.27;0.73;;;16.10;99.90;;;;;;6100750;23;20235;-88
2022/07/22 04:08:19;;;;;;;1.53;1.00;;;16.20;99.90;;;;;;6125819;23;20215;-87
2022/07/22 04:10:44;;;;;;;0.87;0.87;;;16.10;99.90;;;;;;6125128;23;20631;-88
2022/07/22 04:13:11;;;;;;;2.50;1.00;;;16.10;99.90;;;;;;6100425;23;20191;-88
2022/07/22 04:15:36;;;;;;;0.83;0.80;;;16.10;99.90;;;;;;6077569;23;20251;-88
2022/07/22 04:18:02;;;;;;;4.30;1.20;;;16.20;99.90;;;;;;6076453;23;20585;-88
2022/07/22 04:20:28;;;;;;;2.63;1.00;;;16.10;99.90;;;;;;6124590;23;20283;-87
2022/07/22 04:22:54;;;;;;;0.80;0.80;;;16.20;99.90;;;;;;6100358;23;20196;-88
2022/07/22 04:25:20;;;;;;;2.77;0.70;;;16.20;99.90;;;;;;6100109;23;20188;-87
2022/07/22 04:27:45;;;;;;;3.17;0.67;;;16.20;99.90;;;;;;6125649;23;20165;-88
2022/07/22 04:30:11;;;;;;;3.00;1.17;;;16.20;99.90;;;;;;6100019;23;20208;-88
2022/07/22 04:32:37;;;;;;;0.80;0.80;;;16.20;99.90;;;;;;6124480;23;20532;-89
2022/07/22 04:35:04;;;;;;;1.30;0.80;;;16.30;99.90;;;;;;6076797;23;20199;-88
2022/07/22 04:37:30;;;;;;;3.10;0.77;;;16.30;99.90;;;;;;6101147;23;20194;-89
2022/07/22 04:39:56;;;;;;;0.70;0.70;;;16.30;99.90;;;;;;6100888;23;20279;-89
2022/07/22 04:42:22;;;;;;;2.57;0.60;;;16.30;99.90;;;;;;6100169;23;20212;-89
2022/07/22 04:44:48;;;;;;;0.57;0.43;;;16.30;99.90;;;;;;6100442;23;20280;-88
2022/07/22 04:47:13;;;;;;;5.57;1.13;;;16.20;99.90;;;;;;6076374;23;20196;-87
2022/07/22 04:49:39;;;;;;;0.67;0.43;;;16.20;99.90;;;;;;6075777;23;20203;-88
2022/07/22 04:52:05;;;;;;;6.43;1.17;;;16.20;99.90;;;;;;6100562;23;20161;-87
2022/07/22 04:54:31;;;;;;;2.63;1.13;;;16.20;99.90;;;;;;6125250;23;20160;-88
2022/07/22 04:56:57;;;;;;;2.73;0.60;;;16.20;99.90;;;;;;6075928;23;20206;-87
2022/07/22 04:59:23;;;;;;;3.20;1.23;;;16.20;99.90;;;;;;6100213;23;20273;-88
2022/07/22 05:01:48;;;;;;;2.60;1.03;;;16.20;99.90;;;;;;6100618;23;20196;-87
2022/07/22 05:04:15;;;;;;;2.33;0.97;;;16.20;99.90;;;;;;6076359;23;20600;-88
2022/07/22 05:06:40;;;;;;;3.50;0.97;;;16.20;99.90;;;;;;6127332;23;20235;-88
2022/07/22 05:09:06;;;;;;;1.40;1.03;;;16.20;99.90;;;;;;6101825;23;20216;-89
2022/07/22 05:11:32;;;;;;;2.17;0.83;;;16.20;99.90;;;;;;6078023;23;20204;-88
2022/07/22 05:13:58;;;;;;;0.83;0.67;;;16.30;99.90;;;;;;6126352;23;20255;-88
2022/07/22 05:16:24;;;;;;;1.13;1.03;;;16.30;99.90;;;;;;6102293;23;20580;-88
2022/07/22 05:18:50;;;;;;;1.30;0.80;;;16.30;99.90;;;;;;6102841;23;20488;-88
2022/07/22 05:21:16;;;;;;;1.13;0.93;;;16.30;99.90;;;;;;6126029;23;20247;-88
2022/07/22 05:23:42;;;;;;;1.57;0.70;;;16.40;99.90;;;;;;6101875;23;20207;-88
2022/07/22 05:26:09;;;;;;;1.70;0.83;;;16.50;99.90;;;;;;6078326;23;20203;-88
2022/07/22 05:28:35;;;;;;;0.50;0.50;;;16.50;99.90;;;;;;6101634;23;20274;-88
2022/07/22 05:31:00;;;;;;;1.03;0.93;;;16.60;99.90;;;;;;6102979;23;20184;-88
2022/07/22 05:33:26;;;;;;;2.20;0.90;;;16.60;99.90;;;;;;6078039;23;20198;-89
2022/07/22 05:35:52;;;;;;;1.37;0.97;;;16.50;99.90;;;;;;6101796;23;20637;-87
2022/07/22 05:38:18;;;;;;;2.47;0.90;;;16.50;99.90;;;;;;6077666;23;20203;-89
2022/07/22 05:40:44;;;;;;;3.57;0.80;;;16.50;99.90;;;;;;6078085;23;20649;-89
2022/07/22 05:43:09;;;;;;;3.57;1.03;;;16.50;99.90;;;;;;6077711;23;20156;-88
2022/07/22 05:45:35;;;;;;;3.80;0.93;;;16.50;99.90;;;;;;6078804;23;20236;-89
2022/07/22 05:48:01;;;;;;;2.03;1.03;;;16.40;99.90;;;;;;6078114;23;20203;-88
2022/07/22 05:50:27;;;;;;;4.07;0.93;;;16.50;99.90;;;;;;6077427;23;20261;-88
2022/07/22 05:52:53;;;;;;;2.13;0.93;;;16.60;99.90;;;;;;6125662;23;20274;-88
2022/07/22 05:55:19;;;;;;;5.43;0.60;;;16.60;99.90;;;;;;6077764;23;20180;-88
2022/07/22 05:57:44;;;;;;;0.50;0.50;;;16.60;99.90;;;;;;6102212;23;20215;-86
2022/07/22 06:00:11;;;;;;;1.90;1.00;;;16.60;99.90;;;;;;6100810;23;20743;-86
2022/07/22 06:02:36;;;;;;;4.53;1.63;;;16.60;99.90;;;;;;6101881;23;20204;-90
2022/07/22 06:05:02;;;;;;;1.93;1.00;;;16.70;99.90;;;;;;6078461;23;20211;-90
2022/07/22 06:07:28;;;;;;;3.30;1.47;;;16.70;99.90;;;;;;6102264;23;20195;-90
2022/07/22 06:09:54;;;;;;;2.27;0.80;;;16.70;99.90;;;;;;6102746;23;20239;-89
2022/07/22 06:12:20;;;;;;;5.40;1.07;;;16.70;99.90;;;;;;6078262;23;20228;-91
2022/07/22 06:14:46;;;;;;;0.70;0.70;;;16.60;99.90;;;;;;6101337;23;21048;-90
2022/07/22 06:17:12;;;;;;;1.00;0.90;;;16.70;99.90;;;;;;6077777;23;20663;-89
2022/07/22 06:19:38;;;;;;;4.73;1.37;;;16.70;99.90;;;;;;6077985;23;20530;-91
2022/07/22 06:22:04;;;;;;;3.27;0.73;;;16.60;99.90;;;;;;6102210;23;20160;-90
2022/07/22 06:24:31;;;;;;;3.77;1.03;;;16.70;99.90;;;;;;6102732;23;20168;-94
2022/07/22 06:26:57;;;;;;;6.47;0.80;;;16.60;99.90;;;;;;6102142;23;20528;-90
2022/07/22 06:29:23;;;;;;;2.00;0.50;;;16.70;99.90;;;;;;6078067;23;20202;-90
2022/07/22 06:31:49;;;;;;;2.13;0.67;;;16.60;99.90;;;;;;6078155;23;20254;-90
2022/07/22 06:34:14;;;;;;;0.50;0.50;;;16.60;99.90;;;;;;6079329;23;20167;-91
2022/07/22 06:36:40;;;;;;;1.33;0.73;;;16.60;99.90;;;;;;6104399;23;20600;-93
2022/07/22 06:39:06;;;;;;;0.70;0.57;;;16.60;99.90;;;;;;6128048;23;20222;-91
2022/07/22 06:41:32;;;;;;;0.53;0.53;;;16.60;99.90;;;;;;6101188;23;20223;-88
2022/07/22 06:43:58;;;;;;;0.50;0.50;;;16.70;99.90;;;;;;6125832;23;20199;-88
2022/07/22 06:46:23;;;;;;;2.50;1.17;;;16.70;99.90;;;;;;6076888;23;20200;-86
2022/07/22 06:48:49;;;;;;;4.70;0.40;;;16.60;99.90;;;;;;6078263;23;20160;-90
2022/07/22 06:51:15;;;;;;;0.67;0.50;;;16.70;99.90;;;;;;6100845;23;20200;-90
2022/07/22 06:53:41;;;;;;;2.10;0.43;;;16.70;99.90;;;;;;6077471;23;20196;-89
2022/07/22 06:56:07;;;;;;;0.70;0.47;;;16.70;99.90;;;;;;6101052;23;20214;-89
2022/07/22 06:58:33;;;;;;;0.50;0.50;;;16.80;99.90;;;;;;6077451;23;20191;-90
2022/07/22 07:00:58;;;;;;;0.47;0.47;;;16.90;99.90;;;;;;6102606;23;20164;-89
2022/07/22 07:03:25;;;;;;;0.30;0.30;;;16.90;99.90;;;;;;6077232;23;20204;-88
2022/07/22 07:05:52;;;;;;;1.80;0.80;;;17.00;99.90;;;;;;6125290;23;20741;-90
2022/07/22 07:08:18;;;;;;;3.90;0.40;;;17.00;99.90;;;;;;6125530;23;20221;-91
2022/07/22 07:10:44;;;;;;;0.67;0.67;;;17.10;99.90;;;;;;6101150;23;20214;-91
2022/07/22 07:13:09;;;;;;;2.43;1.10;;;17.20;99.90;;;;;;6077552;23;20235;-90
2022/07/22 07:15:35;;;;;;;0.63;0.40;;;17.30;99.90;;;;;;6101827;23;20164;-91
2022/07/22 07:18:01;;;;;;;0.43;0.40;;;17.20;99.90;;;;;;6101296;23;20200;-91
2022/07/22 07:20:27;;;;;;;3.07;0.50;;;17.20;99.90;;;;;;6076447;23;20218;-91
2022/07/22 07:22:54;;;;;;;0.40;0.40;;;17.30;99.90;;;;;;6125546;23;20199;-90
2022/07/22 07:25:20;;;;;;;0.50;0.50;;;17.20;99.90;;;;;;6101298;23;20160;-89
2022/07/22 07:27:46;;;;;;;0.50;0.50;;;17.30;99.90;;;;;;6126098;23;20179;-88
2022/07/22 07:30:13;;;;;;;0.33;0.33;;;17.30;99.90;;;;;;6077142;23;20207;-90
2022/07/22 07:32:39;;;;;;;0.40;0.40;;;17.30;99.90;;;;;;6100891;23;20649;-89
2022/07/22 07:35:06;;;;;;;1.10;0.53;;;17.40;99.90;;;;;;6100977;23;20196;-88
2022/07/22 07:37:32;;;;;;;1.90;0.33;;;17.50;99.90;;;;;;6100680;23;20196;-87
2022/07/22 07:39:58;;;;;;;0.70;0.37;;;17.60;99.90;;;;;;6098794;23;20539;-90
2022/07/22 07:42:25;;;;;;;0.40;0.40;;;17.60;99.90;;;;;;6072027;23;20200;-88
2022/07/22 07:44:50;;;;;;;2.13;0.60;;;17.60;99.90;;;;;;6047869;23;20200;-88
2022/07/22 07:47:18;;;;;;;2.40;0.80;;;17.60;99.90;;;;;;6047851;23;20218;-89
2022/07/22 07:49:45;;;;;;;0.90;0.90;;;17.70;99.90;;;;;;6072202;23;20205;-88
2022/07/22 07:52:12;;;;;;;0.40;0.40;;;17.70;99.90;;;;;;6071723;23;20164;-88
2022/07/22 07:54:41;;;;;;;1.07;0.50;;;17.70;99.90;;;;;;6048571;23;20284;-88
2022/07/22 07:57:08;;;;;;;0.43;0.43;;;17.90;99.90;;;;;;6048373;23;20660;-87
2022/07/22 07:59:34;;;;;;;1.03;0.87;;;17.90;99.90;;;;;;6048042;23;20665;-87
2022/07/22 08:02:00;;;;;;;0.30;0.30;;;17.70;99.90;;;;;;6071360;23;20196;-87
2022/07/22 08:04:26;;;;;;;0.50;0.50;;;17.70;99.90;;;;;;6024245;23;20193;-87
2022/07/22 08:06:51;;;;;;;2.30;0.67;;;17.60;99.90;;;;;;6048293;23;20172;-87
2022/07/22 08:09:17;;;;;;;0.50;0.50;;;17.60;99.90;;;;;;6023821;23;20216;-87
2022/07/22 08:11:43;;;;;;;0.83;0.70;;;17.60;99.90;;;;;;6023541;23;20224;-87
2022/07/22 08:14:08;;;;;;;1.50;0.30;;;17.30;99.90;;;;;;6024224;23;20262;-88
2022/07/22 08:16:34;;;;;;;0.40;0.40;;;17.40;99.90;;;;;;6047590;23;20200;-86
2022/07/22 08:19:00;;;;;;;1.60;0.50;;;17.30;99.90;;;;;;6024769;23;20168;-88
2022/07/22 08:21:26;;;;;;;0.40;0.40;;;17.30;99.90;;;;;;6024049;23;20203;-88
2022/07/22 08:23:52;;;;;;;0.60;0.50;;;17.40;99.90;;;;;;6047621;23;20276;-87
2022/07/22 08:26:18;;;;;;;0.77;0.63;;;17.40;99.90;;;;;;6047635;23;20196;-88
2022/07/22 08:28:44;;;;;;;3.00;0.50;;;17.50;99.90;;;;;;6047216;23;20200;-86
2022/07/22 08:31:10;;;;;;;0.70;0.70;;;17.40;99.90;;;;;;6023190;23;20247;-86
2022/07/22 08:33:35;;;;;;;0.57;0.50;;;17.30;99.90;;;;;;6047617;23;20243;-86
2022/07/22 08:36:02;;;;;;;0.60;0.53;;;17.30;99.90;;;;;;6047102;23;20207;-86
2022/07/22 08:38:28;;;;;;;0.47;0.40;;;17.30;99.90;;;;;;6086330;23;20287;-85
2022/07/22 08:40:55;;;;;;;0.40;0.40;;;17.40;99.90;;;;;;6101716;23;20278;-84
2022/07/22 08:43:22;;;;;;;2.83;0.63;;;17.60;99.90;;;;;;6126160;23;20152;-86
2022/07/22 08:45:48;;;;;;;0.83;0.50;;;17.70;99.90;;;;;;6126687;23;20480;-85
2022/07/22 08:48:15;;;;;;;1.07;0.30;;;17.60;99.90;;;;;;6125829;23;20209;-86
2022/07/22 08:50:41;;;;;;;0.97;0.50;;;17.80;99.90;;;;;;6125843;23;20210;-86
2022/07/22 08:53:11;;;;;;;0.20;0.20;;;17.90;99.90;;;;;;6126128;23;20525;-85
2022/07/22 08:55:46;;;;;;;1.50;0.60;;;18.00;99.90;;;;;;6101761;23;20192;-85
2022/07/22 08:58:12;;;;;;;0.47;0.27;;;18.00;99.90;;;;;;6126182;23;20167;-86
2022/07/22 09:00:39;;;;;;;1.90;0.40;;;18.10;99.90;;;;;;6126062;23;20216;-85
2022/07/22 09:03:18;;;;;;;0.50;0.50;;;18.10;99.90;;;;;;6125710;23;20238;-86
2022/07/22 09:05:44;;;;;;;0.70;0.60;;;18.10;99.90;;;;;;6125641;23;20657;-86
2022/07/22 09:08:09;;;;;;;2.00;0.50;;;18.30;99.90;;;;;;6077555;23;20204;-85
2022/07/22 09:10:36;;;;;;;0.83;0.50;;;18.60;99.90;;;;;;6077522;23;20208;-85
2022/07/22 09:13:06;;;;;;;1.90;0.40;;;18.70;99.90;;;;;;6126290;23;20169;-86
2022/07/22 09:15:35;;;;;;;0.40;0.40;;;18.70;99.90;;;;;;6125891;23;20608;-86
2022/07/22 09:18:02;;;;;;;0.40;0.40;;;18.70;99.90;;;;;;6125803;23;20195;-85
2022/07/22 09:20:29;;;;;;;0.50;0.50;;;19.00;99.90;;;;;;6101448;23;20645;-88
2022/07/22 09:22:55;;;;;;;0.50;0.40;;;18.90;99.90;;;;;;6101231;23;20272;-86
2022/07/22 09:25:28;;;;;;;1.60;0.50;;;18.80;99.90;;;;;;6101538;23;20582;-86
2022/07/22 09:28:15;;;;;;;0.87;0.67;;;19.00;99.90;;;;;;6126388;23;20640;-85
2022/07/22 09:30:53;;;;;;;0.97;0.40;;;18.90;99.90;;;;;;6125778;23;20195;-85
2022/07/22 09:33:20;;;;;;;1.70;0.47;;;18.90;99.90;;;;;;6125723;23;20196;-85
2022/07/22 09:35:47;;;;;;;0.43;0.43;;;18.80;99.90;;;;;;6125544;23;20207;-86
2022/07/22 09:38:15;;;;;;;0.40;0.40;;;18.90;99.90;;;;;;6125531;23;20212;-86
2022/07/22 09:40:46;;;;;;;0.77;0.53;;;19.30;99.90;;;;;;6125631;23;20196;-86
2022/07/22 09:43:15;;;;;;;1.17;1.07;;;19.50;99.90;;;;;;6126117;23;20149;-85
2022/07/22 09:46:08;;;;;;;0.40;0.40;;;19.70;99.90;;;;;;6127013;23;20566;-90
2022/07/22 09:48:34;;;;;;;3.03;0.40;;;19.60;99.90;;;;;;6095739;23;20239;-90
2022/07/22 09:50:59;;;;;;;0.50;0.50;;;19.40;99.90;;;;;;6126277;23;20669;-90
2022/07/22 09:53:28;;;;;;;0.73;0.60;;;19.50;99.90;;;;;;6078179;23;20199;-90
2022/07/22 09:55:56;;;;;;;2.80;0.53;;;19.00;99.90;;;;;;6125901;23;20192;-89
2022/07/22 09:58:22;;;;;;;0.73;0.73;;;19.10;99.90;;;;;;6126147;23;20644;-89
2022/07/22 10:00:48;;;;;;;0.70;0.50;;;19.30;99.90;;;;;;6102370;23;20232;-89
2022/07/22 10:03:23;;;;;;;0.40;0.40;;;19.30;99.90;;;;;;6101594;23;20533;-90
2022/07/22 10:05:49;;;;;;;1.27;0.70;;;19.70;99.90;;;;;;6126212;23;20206;-90
2022/07/22 10:08:15;;;;;;;1.80;0.50;;;20.40;99.90;;;;;;6103298;23;20256;-89
2022/07/22 10:10:41;;;;;;;1.07;0.60;;;20.30;99.90;;;;;;6126311;23;20694;-90
2022/07/22 10:13:08;;;;;;;0.63;0.60;;;20.40;99.90;;;;;;6101522;23;20255;-91
2022/07/22 10:15:35;;;;;;;2.13;0.90;;;20.40;99.90;;;;;;6126505;23;20152;-90
2022/07/22 10:18:06;;;;;;;0.60;0.47;;;21.10;99.90;;;;;;6101797;23;20196;-89
2022/07/22 10:20:33;;;;;;;0.40;0.40;;;21.20;99.90;;;;;;6125717;23;20275;-91
2022/07/22 10:23:06;;;;;;;1.47;0.67;;;21.30;99.90;;;;;;6077869;23;20204;-90
2022/07/22 10:25:47;;;;;;;1.23;0.40;;;21.30;99.90;;;;;;6126302;23;20218;-88
2022/07/22 10:28:25;;;;;;;2.53;0.50;;;19.80;99.90;;;;;;6113383;23;20149;-89
2022/07/22 10:30:51;;;;;;;0.50;0.50;;;19.90;99.90;;;;;;6126524;23;20172;-90
2022/07/22 10:33:21;;;;;;;0.93;0.50;;;20.40;99.90;;;;;;6101472;23;20192;-90
2022/07/22 10:35:57;;;;;;;0.77;0.77;;;20.00;99.90;;;;;;6125035;23;20275;-90
2022/07/22 10:38:24;;;;;;;0.67;0.67;;;19.60;99.90;;;;;;6125081;23;20207;-90
2022/07/22 10:40:55;;;;;;;0.60;0.60;;;19.80;99.90;;;;;;6101669;23;20199;-89
2022/07/22 10:43:23;;;;;;;0.50;0.50;;;19.60;99.90;;;;;;6125833;23;20144;-90
2022/07/22 10:46:15;;;;;;;0.83;0.80;;;19.70;99.90;;;;;;6126499;23;20152;-91
2022/07/22 10:48:41;;;;;;;3.03;0.70;;;19.60;99.90;;;;;;6095730;23;20245;-89
2022/07/22 10:51:09;;;;;;;1.13;0.70;;;19.70;99.90;;;;;;6126784;23;20236;-92
2022/07/22 10:53:51;;;;;;;0.53;0.53;;;20.10;99.90;;;;;;6126447;23;20570;-91
2022/07/22 10:56:33;;;;;;;2.77;1.30;;;19.80;99.90;;;;;;6127156;23;20283;-93
2022/07/22 10:59:21;;;;;;;3.97;1.00;;;20.10;99.90;;;;;;6128304;23;20195;-92
2022/07/22 11:01:51;;;;;;;0.70;0.70;;;19.70;99.90;;;;;;6081184;23;20205;-92
2022/07/22 11:04:21;;;;;;;1.77;1.00;;;19.30;99.90;;;;;;6127989;23;20151;-94
2022/07/22 11:06:49;;;;;;;0.70;0.70;;;18.90;99.90;;;;;;6132899;23;20160;-95
2022/07/22 11:09:16;;;;;;;1.93;0.63;;;18.60;99.90;;;;;;6103503;23;20199;-96
2022/07/22 11:11:53;;;;;;;0.60;0.60;;;18.60;99.90;;;;;;6109776;23;20273;-96
2022/07/22 11:14:27;;;;;;;1.50;0.50;;;18.60;99.90;;;;;;6125891;23;20199;-95
2022/07/22 11:17:04;;;;;;;5.30;0.90;;;18.20;99.90;;;;;;6125783;23;20266;-92
2022/07/22 11:19:37;;;;;;;3.47;0.80;;;18.40;99.90;;;;;;6126143;23;20196;-92
2022/07/22 11:22:15;;;;;;;0.77;0.77;;;18.30;99.90;;;;;;6126238;23;20207;-92
2022/07/22 11:24:42;;;;;;;1.67;0.40;;;18.40;99.90;;;;;;6101749;23;20286;-95
2022/07/22 11:27:16;;;;;;;0.40;0.40;;;18.50;99.90;;;;;;6125770;23;20540;-93
2022/07/22 11:29:45;;;;;;;4.20;0.90;;;18.60;99.90;;;;;;6125758;23;20278;-93
2022/07/22 11:32:13;;;;;;;0.50;0.50;;;18.60;99.90;;;;;;6126718;23;20200;-94
2022/07/22 11:34:47;;;;;;;2.00;0.57;;;18.70;99.90;;;;;;6125245;23;20277;-90
2022/07/22 11:37:14;;;;;;;1.33;0.60;;;18.50;99.90;;;;;;6125423;23;20219;-91
2022/07/22 11:39:40;;;;;;;0.50;0.50;;;18.60;99.90;;;;;;6125482;23;20250;-92
2022/07/22 11:42:06;;;;;;;0.97;0.60;;;18.90;99.90;;;;;;6076836;23;20196;-90
2022/07/22 11:44:35;;;;;;;0.70;0.70;;;19.10;99.90;;;;;;6100844;23;20200;-90
2022/07/22 11:47:02;;;;;;;1.80;0.87;;;19.30;99.90;;;;;;6124824;23;20276;-90
2022/07/22 11:49:33;;;;;;;1.60;0.70;;;19.40;99.90;;;;;;6100987;23;20230;-90
2022/07/22 11:51:59;;;;;;;0.77;0.77;;;19.60;99.90;;;;;;6125921;23;20207;-94
2022/07/22 11:54:26;;;;;;;3.00;1.40;;;19.90;99.90;;;;;;6100900;23;20192;-92
2022/07/22 11:56:52;;;;;;;1.40;0.60;;;20.20;99.90;;;;;;6101017;23;20234;-91
2022/07/22 11:59:18;;;;;;;1.43;0.60;;;20.30;99.90;;;;;;6077319;23;20532;-91
2022/07/22 12:01:46;;;;;;;1.17;0.70;;;20.20;99.90;;;;;;6100757;23;20192;-91
2022/07/22 12:04:15;;;;;;;0.80;0.70;;;20.40;99.90;;;;;;6125347;23;20152;-90
2022/07/22 12:06:43;;;;;;;8.07;1.30;;;20.60;99.90;;;;;;6125818;23;20573;-89
2022/07/22 12:09:20;;;;;;;0.50;0.50;;;21.00;99.90;;;;;;6125320;23;20948;-91
2022/07/22 12:11:48;;;;;;;3.53;1.43;;;21.60;99.90;;;;;;6125512;23;20214;-87
2022/07/22 12:14:15;;;;;;;0.93;0.73;;;21.10;99.90;;;;;;6127049;23;20668;-88
2022/07/22 12:16:43;;;;;;;1.90;0.70;;;21.10;99.90;;;;;;6126733;23;20204;-89
2022/07/22 12:19:11;;;;;;;1.80;0.80;;;20.60;99.90;;;;;;6103013;23;20652;-87
2022/07/22 12:21:52;;;;;;;0.60;0.50;;;20.60;99.90;;;;;;6127490;23;20156;-87
2022/07/22 12:24:32;;;;;;;1.07;0.60;;;21.30;99.90;;;;;;6127441;23;20266;-91
2022/07/22 12:27:00;;;;;;;1.03;0.93;;;21.70;99.90;;;;;;6128111;23;20196;-90
2022/07/22 12:29:30;;;;;;;0.77;0.60;;;21.30;99.90;;;;;;6127184;23;20195;-89
2022/07/22 12:32:00;;;;;;;0.77;0.77;;;20.80;99.90;;;;;;6126877;23;20210;-90
2022/07/22 12:34:54;;;;;;;1.30;0.97;;;20.80;99.90;;;;;;6126834;23;20713;-89
2022/07/22 12:37:25;;;;;;;2.30;1.20;;;20.10;99.90;;;;;;6126808;23;20151;-88
2022/07/22 12:40:11;;;;;;;2.00;0.70;;;20.00;99.90;;;;;;6126805;23;20203;-89
2022/07/22 12:42:43;;;;;;;3.40;0.60;;;19.80;99.90;;;;;;6127249;23;20625;-89
2022/07/22 12:45:10;;;;;;;0.93;0.87;;;19.90;99.90;;;;;;6126977;23;20200;-88
2022/07/22 12:47:48;;;;;;;3.07;0.97;;;20.00;99.90;;;;;;6126533;23;20208;-89
2022/07/22 12:50:20;;;;;;;2.07;0.60;;;19.70;99.90;;;;;;6126548;23;20207;-88